sensor_id;sensor_type;location;lat;lon;timestamp;P1;durP1;ratioP1;P2;durP2;ratioP2
38779;SDS011;29273;49.962;9.768;2024-02-21T00:00:44;5.55;;;2.22;;
38779;SDS011;29273;49.962;9.768;2024-02-21T00:03:09;3.30;;;1.98;;
38779;SDS011;29273;49.962;9.768;2024-02-21T00:05:35;3.85;;;1.80;;
38779;SDS011;29273;49.962;9.768;2024-02-21T00:08:00;6.07;;;2.20;;
38779;SDS011;29273;49.962;9.768;2024-02-21T00:10:26;3.33;;;1.88;;
38779;SDS011;29273;49.962;9.768;2024-02-21T00:12:51;3.22;;;2.10;;
38779;SDS011;29273;49.962;9.768;2024-02-21T00:15:17;5.28;;;1.85;;
38779;SDS011;29273;49.962;9.768;2024-02-21T00:17:43;4.90;;;1.70;;
38779;SDS011;29273;49.962;9.768;2024-02-21T00:20:09;5.20;;;1.95;;
38779;SDS011;29273;49.962;9.768;2024-02-21T00:22:35;4.70;;;2.08;;
38779;SDS011;29273;49.962;9.768;2024-02-21T00:25:01;5.93;;;1.92;;
38779;SDS011;29273;49.962;9.768;2024-02-21T00:27:26;3.75;;;1.83;;
38779;SDS011;29273;49.962;9.768;2024-02-21T00:29:52;4.13;;;1.85;;
38779;SDS011;29273;49.962;9.768;2024-02-21T00:32:18;2.75;;;1.90;;
38779;SDS011;29273;49.962;9.768;2024-02-21T00:34:43;3.70;;;1.92;;
38779;SDS011;29273;49.962;9.768;2024-02-21T00:37:09;4.90;;;1.88;;
38779;SDS011;29273;49.962;9.768;2024-02-21T00:39:34;4.80;;;2.03;;
38779;SDS011;29273;49.962;9.768;2024-02-21T00:42:00;4.05;;;2.00;;
38779;SDS011;29273;49.962;9.768;2024-02-21T00:44:26;3.95;;;2.00;;
38779;SDS011;29273;49.962;9.768;2024-02-21T00:46:51;7.60;;;2.45;;
38779;SDS011;29273;49.962;9.768;2024-02-21T00:49:17;3.28;;;1.65;;
38779;SDS011;29273;49.962;9.768;2024-02-21T00:51:43;3.60;;;1.60;;
38779;SDS011;29273;49.962;9.768;2024-02-21T00:54:08;3.13;;;1.55;;
38779;SDS011;29273;49.962;9.768;2024-02-21T00:56:34;2.50;;;1.70;;
38779;SDS011;29273;49.962;9.768;2024-02-21T00:59:00;5.65;;;2.08;;
38779;SDS011;29273;49.962;9.768;2024-02-21T01:01:26;2.42;;;1.67;;
38779;SDS011;29273;49.962;9.768;2024-02-21T01:03:52;3.53;;;1.90;;
38779;SDS011;29273;49.962;9.768;2024-02-21T01:06:20;4.65;;;1.80;;
38779;SDS011;29273;49.962;9.768;2024-02-21T01:08:48;3.22;;;1.73;;
38779;SDS011;29273;49.962;9.768;2024-02-21T01:11:15;3.90;;;1.80;;
38779;SDS011;29273;49.962;9.768;2024-02-21T01:13:40;6.60;;;1.92;;
38779;SDS011;29273;49.962;9.768;2024-02-21T01:16:06;3.42;;;1.80;;
38779;SDS011;29273;49.962;9.768;2024-02-21T01:18:33;5.57;;;1.52;;
38779;SDS011;29273;49.962;9.768;2024-02-21T01:20:59;4.03;;;1.70;;
38779;SDS011;29273;49.962;9.768;2024-02-21T01:23:24;4.95;;;1.77;;
38779;SDS011;29273;49.962;9.768;2024-02-21T01:25:50;2.58;;;1.60;;
38779;SDS011;29273;49.962;9.768;2024-02-21T01:28:16;2.83;;;1.70;;
38779;SDS011;29273;49.962;9.768;2024-02-21T01:30:41;3.15;;;1.80;;
38779;SDS011;29273;49.962;9.768;2024-02-21T01:33:07;3.28;;;1.55;;
38779;SDS011;29273;49.962;9.768;2024-02-21T01:35:32;3.50;;;1.90;;
38779;SDS011;29273;49.962;9.768;2024-02-21T01:37:58;3.78;;;1.90;;
38779;SDS011;29273;49.962;9.768;2024-02-21T01:40:23;3.28;;;1.50;;
38779;SDS011;29273;49.962;9.768;2024-02-21T01:42:48;4.05;;;1.83;;
38779;SDS011;29273;49.962;9.768;2024-02-21T01:45:14;3.58;;;1.70;;
38779;SDS011;29273;49.962;9.768;2024-02-21T01:47:40;4.50;;;1.60;;
38779;SDS011;29273;49.962;9.768;2024-02-21T01:50:05;4.40;;;2.10;;
38779;SDS011;29273;49.962;9.768;2024-02-21T01:52:32;2.83;;;1.73;;
38779;SDS011;29273;49.962;9.768;2024-02-21T01:54:59;4.82;;;1.52;;
38779;SDS011;29273;49.962;9.768;2024-02-21T01:57:26;4.15;;;1.70;;
38779;SDS011;29273;49.962;9.768;2024-02-21T01:59:53;2.60;;;1.65;;
38779;SDS011;29273;49.962;9.768;2024-02-21T02:02:19;2.08;;;1.35;;
38779;SDS011;29273;49.962;9.768;2024-02-21T02:04:45;2.47;;;1.40;;
38779;SDS011;29273;49.962;9.768;2024-02-21T02:07:11;3.95;;;1.70;;
38779;SDS011;29273;49.962;9.768;2024-02-21T02:09:36;3.28;;;1.80;;
38779;SDS011;29273;49.962;9.768;2024-02-21T02:12:02;2.60;;;1.60;;
38779;SDS011;29273;49.962;9.768;2024-02-21T02:14:28;3.55;;;1.67;;
38779;SDS011;29273;49.962;9.768;2024-02-21T02:16:53;3.88;;;1.88;;
38779;SDS011;29273;49.962;9.768;2024-02-21T02:19:18;3.20;;;1.50;;
38779;SDS011;29273;49.962;9.768;2024-02-21T02:21:46;3.65;;;1.52;;
38779;SDS011;29273;49.962;9.768;2024-02-21T02:24:19;3.80;;;1.70;;
38779;SDS011;29273;49.962;9.768;2024-02-21T02:26:45;3.83;;;1.90;;
38779;SDS011;29273;49.962;9.768;2024-02-21T02:29:11;3.40;;;1.63;;
38779;SDS011;29273;49.962;9.768;2024-02-21T02:31:36;4.25;;;1.80;;
38779;SDS011;29273;49.962;9.768;2024-02-21T02:34:03;3.72;;;1.73;;
38779;SDS011;29273;49.962;9.768;2024-02-21T02:36:29;2.72;;;1.60;;
38779;SDS011;29273;49.962;9.768;2024-02-21T02:38:57;4.22;;;2.20;;
38779;SDS011;29273;49.962;9.768;2024-02-21T02:41:22;2.88;;;1.77;;
38779;SDS011;29273;49.962;9.768;2024-02-21T02:43:47;3.42;;;1.83;;
38779;SDS011;29273;49.962;9.768;2024-02-21T02:46:13;2.90;;;1.70;;
38779;SDS011;29273;49.962;9.768;2024-02-21T02:48:38;4.55;;;1.73;;
38779;SDS011;29273;49.962;9.768;2024-02-21T02:51:04;2.72;;;1.80;;
38779;SDS011;29273;49.962;9.768;2024-02-21T02:53:29;3.30;;;2.10;;
38779;SDS011;29273;49.962;9.768;2024-02-21T02:55:55;4.70;;;2.03;;
38779;SDS011;29273;49.962;9.768;2024-02-21T02:58:20;4.05;;;2.15;;
38779;SDS011;29273;49.962;9.768;2024-02-21T03:00:46;3.92;;;1.95;;
38779;SDS011;29273;49.962;9.768;2024-02-21T03:03:11;4.55;;;1.90;;
38779;SDS011;29273;49.962;9.768;2024-02-21T03:05:37;4.30;;;2.00;;
38779;SDS011;29273;49.962;9.768;2024-02-21T03:08:02;5.47;;;2.15;;
38779;SDS011;29273;49.962;9.768;2024-02-21T03:10:32;5.18;;;1.98;;
38779;SDS011;29273;49.962;9.768;2024-02-21T03:12:58;3.03;;;1.85;;
38779;SDS011;29273;49.962;9.768;2024-02-21T03:15:24;2.80;;;1.73;;
38779;SDS011;29273;49.962;9.768;2024-02-21T03:17:49;2.17;;;1.40;;
38779;SDS011;29273;49.962;9.768;2024-02-21T03:20:15;3.45;;;1.80;;
38779;SDS011;29273;49.962;9.768;2024-02-21T03:22:41;6.50;;;1.90;;
38779;SDS011;29273;49.962;9.768;2024-02-21T03:25:07;3.58;;;1.95;;
38779;SDS011;29273;49.962;9.768;2024-02-21T03:27:33;2.65;;;2.03;;
38779;SDS011;29273;49.962;9.768;2024-02-21T03:29:59;2.00;;;1.67;;
38779;SDS011;29273;49.962;9.768;2024-02-21T03:32:24;3.67;;;1.98;;
38779;SDS011;29273;49.962;9.768;2024-02-21T03:34:50;2.65;;;1.92;;
38779;SDS011;29273;49.962;9.768;2024-02-21T03:37:16;3.08;;;1.67;;
38779;SDS011;29273;49.962;9.768;2024-02-21T03:39:41;3.92;;;1.70;;
38779;SDS011;29273;49.962;9.768;2024-02-21T03:42:07;3.45;;;2.05;;
38779;SDS011;29273;49.962;9.768;2024-02-21T03:44:32;3.03;;;1.63;;
38779;SDS011;29273;49.962;9.768;2024-02-21T03:46:59;2.90;;;1.58;;
38779;SDS011;29273;49.962;9.768;2024-02-21T03:49:25;3.55;;;1.70;;
38779;SDS011;29273;49.962;9.768;2024-02-21T03:51:51;3.70;;;2.00;;
38779;SDS011;29273;49.962;9.768;2024-02-21T03:54:16;3.22;;;1.67;;
38779;SDS011;29273;49.962;9.768;2024-02-21T03:56:42;3.67;;;1.70;;
38779;SDS011;29273;49.962;9.768;2024-02-21T03:59:07;2.67;;;1.50;;
38779;SDS011;29273;49.962;9.768;2024-02-21T04:01:33;2.85;;;1.63;;
38779;SDS011;29273;49.962;9.768;2024-02-21T04:03:59;3.40;;;1.90;;
38779;SDS011;29273;49.962;9.768;2024-02-21T04:06:25;4.55;;;1.88;;
38779;SDS011;29273;49.962;9.768;2024-02-21T04:08:50;4.00;;;2.00;;
38779;SDS011;29273;49.962;9.768;2024-02-21T04:11:16;3.65;;;1.90;;
38779;SDS011;29273;49.962;9.768;2024-02-21T04:13:42;3.80;;;1.50;;
38779;SDS011;29273;49.962;9.768;2024-02-21T04:16:08;2.88;;;1.70;;
38779;SDS011;29273;49.962;9.768;2024-02-21T04:18:33;2.70;;;1.80;;
38779;SDS011;29273;49.962;9.768;2024-02-21T04:20:59;2.53;;;1.63;;
38779;SDS011;29273;49.962;9.768;2024-02-21T04:23:24;4.20;;;2.00;;
38779;SDS011;29273;49.962;9.768;2024-02-21T04:25:50;2.65;;;1.52;;
38779;SDS011;29273;49.962;9.768;2024-02-21T04:28:15;2.95;;;1.70;;
38779;SDS011;29273;49.962;9.768;2024-02-21T04:30:40;2.95;;;1.80;;
38779;SDS011;29273;49.962;9.768;2024-02-21T04:33:06;2.67;;;1.60;;
38779;SDS011;29273;49.962;9.768;2024-02-21T04:35:31;4.00;;;2.33;;
38779;SDS011;29273;49.962;9.768;2024-02-21T04:37:57;3.17;;;1.90;;
38779;SDS011;29273;49.962;9.768;2024-02-21T04:40:22;3.65;;;1.83;;
38779;SDS011;29273;49.962;9.768;2024-02-21T04:42:48;3.22;;;1.92;;
38779;SDS011;29273;49.962;9.768;2024-02-21T04:45:13;3.78;;;1.88;;
38779;SDS011;29273;49.962;9.768;2024-02-21T04:47:39;3.10;;;1.67;;
38779;SDS011;29273;49.962;9.768;2024-02-21T04:50:04;4.45;;;1.75;;
38779;SDS011;29273;49.962;9.768;2024-02-21T04:52:31;3.60;;;1.92;;
38779;SDS011;29273;49.962;9.768;2024-02-21T04:54:56;2.85;;;1.88;;
38779;SDS011;29273;49.962;9.768;2024-02-21T04:57:22;3.03;;;1.80;;
38779;SDS011;29273;49.962;9.768;2024-02-21T04:59:47;3.00;;;1.65;;
38779;SDS011;29273;49.962;9.768;2024-02-21T05:02:13;3.30;;;1.80;;
38779;SDS011;29273;49.962;9.768;2024-02-21T05:04:39;3.47;;;1.92;;
38779;SDS011;29273;49.962;9.768;2024-02-21T05:07:06;3.13;;;1.92;;
38779;SDS011;29273;49.962;9.768;2024-02-21T05:09:32;3.22;;;1.52;;
38779;SDS011;29273;49.962;9.768;2024-02-21T05:11:57;3.35;;;2.22;;
38779;SDS011;29273;49.962;9.768;2024-02-21T05:14:25;3.47;;;1.90;;
38779;SDS011;29273;49.962;9.768;2024-02-21T05:16:54;4.95;;;2.13;;
38779;SDS011;29273;49.962;9.768;2024-02-21T05:19:20;6.13;;;2.47;;
38779;SDS011;29273;49.962;9.768;2024-02-21T05:21:45;5.88;;;2.28;;
38779;SDS011;29273;49.962;9.768;2024-02-21T05:24:11;2.88;;;1.88;;
38779;SDS011;29273;49.962;9.768;2024-02-21T05:26:37;4.38;;;2.22;;
38779;SDS011;29273;49.962;9.768;2024-02-21T05:29:03;7.28;;;2.70;;
38779;SDS011;29273;49.962;9.768;2024-02-21T05:34:16;3.42;;;2.30;;
38779;SDS011;29273;49.962;9.768;2024-02-21T05:36:42;3.15;;;1.58;;
38779;SDS011;29273;49.962;9.768;2024-02-21T05:39:07;3.65;;;2.17;;
38779;SDS011;29273;49.962;9.768;2024-02-21T05:41:33;3.28;;;1.80;;
38779;SDS011;29273;49.962;9.768;2024-02-21T05:43:58;3.92;;;1.70;;
38779;SDS011;29273;49.962;9.768;2024-02-21T05:46:23;2.90;;;1.75;;
38779;SDS011;29273;49.962;9.768;2024-02-21T05:48:49;2.13;;;1.70;;
38779;SDS011;29273;49.962;9.768;2024-02-21T05:51:15;3.22;;;1.60;;
38779;SDS011;29273;49.962;9.768;2024-02-21T05:53:41;3.28;;;1.60;;
38779;SDS011;29273;49.962;9.768;2024-02-21T05:56:10;4.28;;;1.95;;
38779;SDS011;29273;49.962;9.768;2024-02-21T05:58:36;3.63;;;2.08;;
38779;SDS011;29273;49.962;9.768;2024-02-21T06:01:02;3.67;;;1.70;;
38779;SDS011;29273;49.962;9.768;2024-02-21T06:03:29;3.72;;;1.60;;
38779;SDS011;29273;49.962;9.768;2024-02-21T06:05:55;3.13;;;1.98;;
38779;SDS011;29273;49.962;9.768;2024-02-21T06:08:20;3.35;;;1.80;;
38779;SDS011;29273;49.962;9.768;2024-02-21T06:10:45;3.47;;;1.52;;
38779;SDS011;29273;49.962;9.768;2024-02-21T06:13:11;3.38;;;1.98;;
38779;SDS011;29273;49.962;9.768;2024-02-21T06:15:36;4.10;;;1.90;;
38779;SDS011;29273;49.962;9.768;2024-02-21T06:18:02;5.47;;;1.70;;
38779;SDS011;29273;49.962;9.768;2024-02-21T06:20:27;4.20;;;2.03;;
38779;SDS011;29273;49.962;9.768;2024-02-21T06:22:53;3.65;;;2.10;;
38779;SDS011;29273;49.962;9.768;2024-02-21T06:25:19;5.95;;;2.42;;
38779;SDS011;29273;49.962;9.768;2024-02-21T06:27:45;3.88;;;2.28;;
38779;SDS011;29273;49.962;9.768;2024-02-21T06:30:10;3.38;;;2.17;;
38779;SDS011;29273;49.962;9.768;2024-02-21T06:32:36;3.70;;;1.92;;
38779;SDS011;29273;49.962;9.768;2024-02-21T06:35:04;4.03;;;2.33;;
38779;SDS011;29273;49.962;9.768;2024-02-21T06:37:30;6.53;;;2.92;;
38779;SDS011;29273;49.962;9.768;2024-02-21T06:39:57;4.72;;;2.70;;
38779;SDS011;29273;49.962;9.768;2024-02-21T06:42:26;4.97;;;2.47;;
38779;SDS011;29273;49.962;9.768;2024-02-21T06:44:51;4.60;;;2.50;;
38779;SDS011;29273;49.962;9.768;2024-02-21T06:47:17;5.05;;;2.40;;
38779;SDS011;29273;49.962;9.768;2024-02-21T06:49:42;5.18;;;2.35;;
38779;SDS011;29273;49.962;9.768;2024-02-21T06:52:08;4.20;;;2.20;;
38779;SDS011;29273;49.962;9.768;2024-02-21T06:54:33;3.75;;;2.35;;
38779;SDS011;29273;49.962;9.768;2024-02-21T06:56:59;4.68;;;2.40;;
38779;SDS011;29273;49.962;9.768;2024-02-21T06:59:24;4.65;;;2.25;;
38779;SDS011;29273;49.962;9.768;2024-02-21T07:01:53;3.13;;;2.10;;
38779;SDS011;29273;49.962;9.768;2024-02-21T07:04:20;4.45;;;2.20;;
38779;SDS011;29273;49.962;9.768;2024-02-21T07:06:46;6.07;;;3.17;;
38779;SDS011;29273;49.962;9.768;2024-02-21T07:09:11;5.50;;;2.30;;
38779;SDS011;29273;49.962;9.768;2024-02-21T07:11:37;4.97;;;2.58;;
38779;SDS011;29273;49.962;9.768;2024-02-21T07:14:02;6.10;;;2.92;;
38779;SDS011;29273;49.962;9.768;2024-02-21T07:16:28;5.60;;;2.80;;
38779;SDS011;29273;49.962;9.768;2024-02-21T07:18:54;4.65;;;2.45;;
38779;SDS011;29273;49.962;9.768;2024-02-21T07:21:20;6.85;;;2.35;;
38779;SDS011;29273;49.962;9.768;2024-02-21T07:23:45;5.72;;;2.60;;
38779;SDS011;29273;49.962;9.768;2024-02-21T07:26:11;5.47;;;2.70;;
38779;SDS011;29273;49.962;9.768;2024-02-21T07:28:36;4.93;;;2.88;;
38779;SDS011;29273;49.962;9.768;2024-02-21T07:31:02;5.30;;;3.10;;
38779;SDS011;29273;49.962;9.768;2024-02-21T07:33:28;5.28;;;2.67;;
38779;SDS011;29273;49.962;9.768;2024-02-21T07:35:56;5.13;;;2.60;;
38779;SDS011;29273;49.962;9.768;2024-02-21T07:38:21;5.05;;;2.70;;
38779;SDS011;29273;49.962;9.768;2024-02-21T07:40:47;4.57;;;2.50;;
38779;SDS011;29273;49.962;9.768;2024-02-21T07:43:13;3.97;;;2.50;;
38779;SDS011;29273;49.962;9.768;2024-02-21T07:45:39;3.53;;;2.35;;
38779;SDS011;29273;49.962;9.768;2024-02-21T07:48:05;5.50;;;2.67;;
38779;SDS011;29273;49.962;9.768;2024-02-21T07:50:31;4.40;;;2.30;;
38779;SDS011;29273;49.962;9.768;2024-02-21T07:52:56;3.83;;;2.00;;
38779;SDS011;29273;49.962;9.768;2024-02-21T07:55:22;3.03;;;2.30;;
38779;SDS011;29273;49.962;9.768;2024-02-21T07:57:48;6.35;;;3.20;;
38779;SDS011;29273;49.962;9.768;2024-02-21T08:00:14;4.88;;;2.47;;
38779;SDS011;29273;49.962;9.768;2024-02-21T08:02:45;5.03;;;2.63;;
38779;SDS011;29273;49.962;9.768;2024-02-21T08:05:11;6.47;;;2.40;;
38779;SDS011;29273;49.962;9.768;2024-02-21T08:07:37;6.22;;;2.95;;
38779;SDS011;29273;49.962;9.768;2024-02-21T08:10:03;5.63;;;2.42;;
38779;SDS011;29273;49.962;9.768;2024-02-21T08:12:29;3.92;;;2.50;;
38779;SDS011;29273;49.962;9.768;2024-02-21T08:14:55;5.43;;;2.70;;
38779;SDS011;29273;49.962;9.768;2024-02-21T08:17:20;5.93;;;3.15;;
38779;SDS011;29273;49.962;9.768;2024-02-21T08:19:46;5.38;;;2.92;;
38779;SDS011;29273;49.962;9.768;2024-02-21T08:22:13;5.22;;;2.83;;
38779;SDS011;29273;49.962;9.768;2024-02-21T08:24:38;4.40;;;2.47;;
38779;SDS011;29273;49.962;9.768;2024-02-21T08:27:04;4.60;;;2.65;;
38779;SDS011;29273;49.962;9.768;2024-02-21T08:29:29;3.83;;;2.55;;
38779;SDS011;29273;49.962;9.768;2024-02-21T08:31:55;5.78;;;2.70;;
38779;SDS011;29273;49.962;9.768;2024-02-21T08:34:20;4.97;;;2.90;;
38779;SDS011;29273;49.962;9.768;2024-02-21T08:36:46;6.85;;;3.65;;
38779;SDS011;29273;49.962;9.768;2024-02-21T08:39:11;6.43;;;3.35;;
38779;SDS011;29273;49.962;9.768;2024-02-21T08:41:40;5.60;;;3.22;;
38779;SDS011;29273;49.962;9.768;2024-02-21T08:44:05;4.25;;;2.90;;
38779;SDS011;29273;49.962;9.768;2024-02-21T08:46:32;7.70;;;3.05;;
38779;SDS011;29273;49.962;9.768;2024-02-21T08:48:58;7.43;;;2.60;;
38779;SDS011;29273;49.962;9.768;2024-02-21T08:51:23;4.03;;;2.45;;
38779;SDS011;29273;49.962;9.768;2024-02-21T08:53:49;4.43;;;2.03;;
38779;SDS011;29273;49.962;9.768;2024-02-21T08:56:15;3.60;;;2.05;;
38779;SDS011;29273;49.962;9.768;2024-02-21T08:58:41;4.20;;;1.90;;
38779;SDS011;29273;49.962;9.768;2024-02-21T09:01:06;4.15;;;1.77;;
38779;SDS011;29273;49.962;9.768;2024-02-21T09:03:38;3.45;;;1.70;;
38779;SDS011;29273;49.962;9.768;2024-02-21T09:06:04;4.97;;;1.70;;
38779;SDS011;29273;49.962;9.768;2024-02-21T09:08:30;3.63;;;1.83;;
38779;SDS011;29273;49.962;9.768;2024-02-21T09:10:56;4.45;;;1.95;;
38779;SDS011;29273;49.962;9.768;2024-02-21T09:13:22;2.67;;;1.25;;
38779;SDS011;29273;49.962;9.768;2024-02-21T09:15:48;3.60;;;1.90;;
38779;SDS011;29273;49.962;9.768;2024-02-21T09:18:14;3.53;;;1.80;;
38779;SDS011;29273;49.962;9.768;2024-02-21T09:20:41;4.65;;;1.73;;
38779;SDS011;29273;49.962;9.768;2024-02-21T09:23:06;4.40;;;1.73;;
38779;SDS011;29273;49.962;9.768;2024-02-21T09:25:32;4.22;;;1.90;;
38779;SDS011;29273;49.962;9.768;2024-02-21T09:27:57;2.75;;;1.48;;
38779;SDS011;29273;49.962;9.768;2024-02-21T09:30:23;3.55;;;1.60;;
38779;SDS011;29273;49.962;9.768;2024-02-21T09:32:49;3.15;;;1.30;;
38779;SDS011;29273;49.962;9.768;2024-02-21T09:35:15;5.45;;;1.63;;
38779;SDS011;29273;49.962;9.768;2024-02-21T09:37:40;4.45;;;1.73;;
38779;SDS011;29273;49.962;9.768;2024-02-21T09:40:06;2.70;;;1.40;;
38779;SDS011;29273;49.962;9.768;2024-02-21T09:45:07;3.97;;;1.70;;
38779;SDS011;29273;49.962;9.768;2024-02-21T09:50:41;2.28;;;1.50;;
38779;SDS011;29273;49.962;9.768;2024-02-21T09:53:09;2.90;;;1.35;;
38779;SDS011;29273;49.962;9.768;2024-02-21T09:55:37;4.20;;;1.50;;
38779;SDS011;29273;49.962;9.768;2024-02-21T09:58:06;3.75;;;1.50;;
38779;SDS011;29273;49.962;9.768;2024-02-21T10:00:37;3.05;;;1.42;;
38779;SDS011;29273;49.962;9.768;2024-02-21T10:03:03;1.98;;;1.48;;
38779;SDS011;29273;49.962;9.768;2024-02-21T10:05:33;4.65;;;1.48;;
38779;SDS011;29273;49.962;9.768;2024-02-21T10:08:00;2.83;;;1.50;;
38779;SDS011;29273;49.962;9.768;2024-02-21T10:10:26;2.88;;;1.63;;
38779;SDS011;29273;49.962;9.768;2024-02-21T10:12:53;3.90;;;1.40;;
38779;SDS011;29273;49.962;9.768;2024-02-21T10:15:23;2.55;;;1.48;;
38779;SDS011;29273;49.962;9.768;2024-02-21T10:17:57;2.90;;;1.45;;
38779;SDS011;29273;49.962;9.768;2024-02-21T10:20:23;2.95;;;1.42;;
38779;SDS011;29273;49.962;9.768;2024-02-21T10:22:59;3.13;;;1.52;;
38779;SDS011;29273;49.962;9.768;2024-02-21T10:25:27;4.20;;;1.30;;
38779;SDS011;29273;49.962;9.768;2024-02-21T10:27:52;1.80;;;1.20;;
38779;SDS011;29273;49.962;9.768;2024-02-21T10:30:17;2.80;;;1.50;;
38779;SDS011;29273;49.962;9.768;2024-02-21T10:35:31;2.08;;;1.30;;
38779;SDS011;29273;49.962;9.768;2024-02-21T10:37:58;2.58;;;1.27;;
38779;SDS011;29273;49.962;9.768;2024-02-21T10:40:25;2.38;;;1.33;;
38779;SDS011;29273;49.962;9.768;2024-02-21T10:42:53;2.63;;;1.35;;
38779;SDS011;29273;49.962;9.768;2024-02-21T10:45:29;3.75;;;1.30;;
38779;SDS011;29273;49.962;9.768;2024-02-21T10:48:08;1.80;;;1.05;;
38779;SDS011;29273;49.962;9.768;2024-02-21T10:50:56;2.72;;;1.10;;
38779;SDS011;29273;49.962;9.768;2024-02-21T10:53:41;2.70;;;1.00;;
38779;SDS011;29273;49.962;9.768;2024-02-21T10:56:26;2.50;;;1.20;;
38779;SDS011;29273;49.962;9.768;2024-02-21T10:58:55;2.72;;;1.00;;
38779;SDS011;29273;49.962;9.768;2024-02-21T11:01:23;3.25;;;1.02;;
38779;SDS011;29273;49.962;9.768;2024-02-21T11:03:49;1.65;;;1.05;;
38779;SDS011;29273;49.962;9.768;2024-02-21T11:06:18;1.88;;;1.00;;
38779;SDS011;29273;49.962;9.768;2024-02-21T11:08:45;3.45;;;1.20;;
38779;SDS011;29273;49.962;9.768;2024-02-21T11:11:14;1.95;;;0.90;;
38779;SDS011;29273;49.962;9.768;2024-02-21T11:13:44;2.08;;;1.10;;
38779;SDS011;29273;49.962;9.768;2024-02-21T11:16:12;2.03;;;1.13;;
38779;SDS011;29273;49.962;9.768;2024-02-21T11:18:47;1.58;;;1.10;;
38779;SDS011;29273;49.962;9.768;2024-02-21T11:21:13;3.67;;;1.30;;
38779;SDS011;29273;49.962;9.768;2024-02-21T11:23:38;3.88;;;1.33;;
38779;SDS011;29273;49.962;9.768;2024-02-21T11:26:07;2.63;;;1.30;;
38779;SDS011;29273;49.962;9.768;2024-02-21T11:28:34;2.88;;;1.40;;
38779;SDS011;29273;49.962;9.768;2024-02-21T11:31:13;2.63;;;1.10;;
38779;SDS011;29273;49.962;9.768;2024-02-21T11:33:40;4.28;;;1.40;;
38779;SDS011;29273;49.962;9.768;2024-02-21T11:36:07;2.70;;;1.27;;
38779;SDS011;29273;49.962;9.768;2024-02-21T11:38:33;2.65;;;1.15;;
38779;SDS011;29273;49.962;9.768;2024-02-21T11:40:59;2.75;;;1.05;;
38779;SDS011;29273;49.962;9.768;2024-02-21T11:43:24;3.08;;;1.10;;
38779;SDS011;29273;49.962;9.768;2024-02-21T11:45:51;2.63;;;1.23;;
38779;SDS011;29273;49.962;9.768;2024-02-21T11:48:24;3.03;;;1.25;;
38779;SDS011;29273;49.962;9.768;2024-02-21T11:50:54;3.17;;;1.40;;
38779;SDS011;29273;49.962;9.768;2024-02-21T11:53:20;2.33;;;1.23;;
38779;SDS011;29273;49.962;9.768;2024-02-21T11:55:46;4.22;;;1.23;;
38779;SDS011;29273;49.962;9.768;2024-02-21T11:58:11;1.73;;;0.90;;
38779;SDS011;29273;49.962;9.768;2024-02-21T12:00:37;2.33;;;1.23;;
38779;SDS011;29273;49.962;9.768;2024-02-21T12:03:03;2.78;;;1.30;;
38779;SDS011;29273;49.962;9.768;2024-02-21T12:05:29;2.75;;;0.95;;
38779;SDS011;29273;49.962;9.768;2024-02-21T12:07:56;2.78;;;1.08;;
38779;SDS011;29273;49.962;9.768;2024-02-21T12:10:23;3.75;;;1.10;;
38779;SDS011;29273;49.962;9.768;2024-02-21T12:12:51;2.67;;;1.20;;
38779;SDS011;29273;49.962;9.768;2024-02-21T12:15:17;2.85;;;1.10;;
38779;SDS011;29273;49.962;9.768;2024-02-21T12:17:43;2.92;;;1.20;;
38779;SDS011;29273;49.962;9.768;2024-02-21T12:20:09;2.15;;;0.95;;
38779;SDS011;29273;49.962;9.768;2024-02-21T12:22:42;2.00;;;0.95;;
38779;SDS011;29273;49.962;9.768;2024-02-21T12:25:17;2.13;;;1.00;;
38779;SDS011;29273;49.962;9.768;2024-02-21T12:27:53;2.15;;;1.00;;
38779;SDS011;29273;49.962;9.768;2024-02-21T12:30:19;3.55;;;1.15;;
38779;SDS011;29273;49.962;9.768;2024-02-21T12:32:45;2.78;;;0.88;;
38779;SDS011;29273;49.962;9.768;2024-02-21T12:35:11;2.70;;;1.02;;
38779;SDS011;29273;49.962;9.768;2024-02-21T12:37:37;2.25;;;0.98;;
38779;SDS011;29273;49.962;9.768;2024-02-21T12:40:06;3.15;;;0.90;;
38779;SDS011;29273;49.962;9.768;2024-02-21T12:42:33;2.33;;;0.80;;
38779;SDS011;29273;49.962;9.768;2024-02-21T12:44:59;3.75;;;1.30;;
38779;SDS011;29273;49.962;9.768;2024-02-21T12:47:24;1.58;;;0.73;;
38779;SDS011;29273;49.962;9.768;2024-02-21T12:49:54;1.75;;;0.70;;
38779;SDS011;29273;49.962;9.768;2024-02-21T12:52:20;2.95;;;1.00;;
38779;SDS011;29273;49.962;9.768;2024-02-21T12:54:45;2.97;;;1.02;;
38779;SDS011;29273;49.962;9.768;2024-02-21T12:57:11;3.25;;;1.20;;
38779;SDS011;29273;49.962;9.768;2024-02-21T12:59:36;2.22;;;1.00;;
38779;SDS011;29273;49.962;9.768;2024-02-21T13:02:02;3.70;;;1.20;;
38779;SDS011;29273;49.962;9.768;2024-02-21T13:04:27;2.00;;;0.82;;
38779;SDS011;29273;49.962;9.768;2024-02-21T13:06:53;1.88;;;1.00;;
38779;SDS011;29273;49.962;9.768;2024-02-21T13:09:18;2.30;;;0.98;;
38779;SDS011;29273;49.962;9.768;2024-02-21T13:11:45;1.55;;;1.00;;
38779;SDS011;29273;49.962;9.768;2024-02-21T13:14:11;1.98;;;1.00;;
38779;SDS011;29273;49.962;9.768;2024-02-21T13:16:37;3.00;;;1.30;;
38779;SDS011;29273;49.962;9.768;2024-02-21T13:19:05;2.88;;;1.10;;
38779;SDS011;29273;49.962;9.768;2024-02-21T13:21:30;2.15;;;1.25;;
38779;SDS011;29273;49.962;9.768;2024-02-21T13:23:56;2.67;;;1.20;;
38779;SDS011;29273;49.962;9.768;2024-02-21T13:26:22;2.03;;;1.00;;
38779;SDS011;29273;49.962;9.768;2024-02-21T13:28:47;2.55;;;0.93;;
38779;SDS011;29273;49.962;9.768;2024-02-21T13:31:14;3.10;;;1.10;;
38779;SDS011;29273;49.962;9.768;2024-02-21T13:33:41;2.85;;;1.10;;
38779;SDS011;29273;49.962;9.768;2024-02-21T13:36:07;2.15;;;0.90;;
38779;SDS011;29273;49.962;9.768;2024-02-21T13:38:33;2.38;;;1.27;;
38779;SDS011;29273;49.962;9.768;2024-02-21T13:40:58;1.75;;;1.00;;
38779;SDS011;29273;49.962;9.768;2024-02-21T13:43:25;1.67;;;1.10;;
38779;SDS011;29273;49.962;9.768;2024-02-21T13:45:57;1.63;;;0.85;;
38779;SDS011;29273;49.962;9.768;2024-02-21T13:48:24;2.50;;;1.05;;
38779;SDS011;29273;49.962;9.768;2024-02-21T13:50:50;3.30;;;1.33;;
38779;SDS011;29273;49.962;9.768;2024-02-21T13:53:15;1.38;;;0.95;;
38779;SDS011;29273;49.962;9.768;2024-02-21T13:55:46;2.80;;;1.20;;
38779;SDS011;29273;49.962;9.768;2024-02-21T13:58:12;1.70;;;0.90;;
38779;SDS011;29273;49.962;9.768;2024-02-21T14:00:37;1.80;;;0.93;;
38779;SDS011;29273;49.962;9.768;2024-02-21T14:03:03;1.65;;;0.98;;
38779;SDS011;29273;49.962;9.768;2024-02-21T14:05:29;1.52;;;1.02;;
38779;SDS011;29273;49.962;9.768;2024-02-21T14:07:55;3.70;;;1.10;;
38779;SDS011;29273;49.962;9.768;2024-02-21T14:10:20;2.33;;;1.00;;
38779;SDS011;29273;49.962;9.768;2024-02-21T14:12:46;3.28;;;1.45;;
38779;SDS011;29273;49.962;9.768;2024-02-21T14:15:13;2.15;;;1.10;;
38779;SDS011;29273;49.962;9.768;2024-02-21T14:17:39;3.47;;;1.13;;
38779;SDS011;29273;49.962;9.768;2024-02-21T14:20:04;1.80;;;1.05;;
38779;SDS011;29273;49.962;9.768;2024-02-21T14:22:31;2.90;;;1.30;;
38779;SDS011;29273;49.962;9.768;2024-02-21T14:24:56;2.90;;;1.15;;
38779;SDS011;29273;49.962;9.768;2024-02-21T14:27:22;2.13;;;1.10;;
38779;SDS011;29273;49.962;9.768;2024-02-21T14:29:47;2.97;;;1.00;;
38779;SDS011;29273;49.962;9.768;2024-02-21T14:32:13;3.33;;;0.98;;
38779;SDS011;29273;49.962;9.768;2024-02-21T14:34:38;2.08;;;1.00;;
38779;SDS011;29273;49.962;9.768;2024-02-21T14:37:04;2.25;;;0.98;;
38779;SDS011;29273;49.962;9.768;2024-02-21T14:39:30;2.65;;;1.10;;
38779;SDS011;29273;49.962;9.768;2024-02-21T14:41:55;2.90;;;1.25;;
38779;SDS011;29273;49.962;9.768;2024-02-21T14:44:21;1.23;;;0.95;;
38779;SDS011;29273;49.962;9.768;2024-02-21T14:46:46;2.65;;;0.93;;
38779;SDS011;29273;49.962;9.768;2024-02-21T14:49:11;2.50;;;0.80;;
38779;SDS011;29273;49.962;9.768;2024-02-21T14:51:37;1.85;;;1.00;;
38779;SDS011;29273;49.962;9.768;2024-02-21T14:54:02;0.88;;;0.73;;